Terminal Aerodrome Forecast
Issued by NWS Upton, NY

Current Version | Previous Version | Text Only | Print | Product List | Glossary On
Versions: 1 2 3 4 5 6 7 8 9 10 11 12 13 14 15 16 17 18 19 20 21 22 23 24 25 26 27 28 29 30 31 32 33 34 35 36 37
000 FTUS41 KOKX 160800 AAB TAFBDR TAF AMD KBDR 160833Z 1609/1706 33012G18KT P6SM SCT015 OVC070 FM160900 32017G27KT P6SM SCT150 FM161500 34016G26KT P6SM FEW040 FM162200 36012KT P6SM SKC FM170200 04008KT P6SM SKC=

USA.gov is the U.S. government's official web portal to all federal, state and local government web resources and services.